createdAt,value
2022-09-26T00:00:34.065Z,4.35
2022-09-26T00:03:59.474Z,4.07
2022-09-26T00:07:02.483Z,3.92
2022-09-26T00:10:08.539Z,3.97
2022-09-26T00:13:11.563Z,4.00
2022-09-26T00:16:15.623Z,4.20
2022-09-26T00:19:19.244Z,3.80
2022-09-26T00:22:22.778Z,4.25
2022-09-26T00:25:27.369Z,3.67
2022-09-26T00:28:30.468Z,3.95
2022-09-26T00:31:35.350Z,4.13
2022-09-26T00:34:38.385Z,3.83
2022-09-26T00:37:41.493Z,3.95
2022-09-26T00:40:46.646Z,4.80
2022-09-26T00:43:51.530Z,3.60
2022-09-26T00:46:54.548Z,3.70
2022-09-26T00:50:01.376Z,4.17
2022-09-26T00:53:10.258Z,3.80
2022-09-26T00:56:19.513Z,3.85
2022-09-26T00:59:27.659Z,4.28
2022-09-26T01:02:31.168Z,3.97
2022-09-26T01:05:36.061Z,4.23
2022-09-26T01:08:42.698Z,4.07
2022-09-26T01:11:47.298Z,3.60
2022-09-26T01:14:57.497Z,3.97
2022-09-26T01:18:00.560Z,4.25
2022-09-26T01:21:19.699Z,4.00
2022-09-26T01:24:43.834Z,3.80
2022-09-26T01:28:00.657Z,3.97
2022-09-26T01:31:14.401Z,4.25
2022-09-26T01:34:25.954Z,4.18
2022-09-26T01:37:34.942Z,3.97
2022-09-26T01:40:45.373Z,4.00
2022-09-26T01:43:55.865Z,3.92
2022-09-26T01:47:06.564Z,3.58
2022-09-26T01:50:16.558Z,3.95
2022-09-26T01:53:24.093Z,3.83
2022-09-26T01:56:34.893Z,3.92
2022-09-26T01:59:42.896Z,4.15
2022-09-26T02:02:49.014Z,3.70
2022-09-26T02:05:55.414Z,3.67
2022-09-26T02:09:02.483Z,4.00
2022-09-26T02:12:09.715Z,3.53
2022-09-26T02:15:17.351Z,4.30
2022-09-26T02:18:30.961Z,3.47
2022-09-26T02:21:34.076Z,3.83
2022-09-26T02:24:37.510Z,3.57
2022-09-26T02:27:40.734Z,3.72
2022-09-26T02:30:47.074Z,3.45
2022-09-26T02:33:52.510Z,3.53
2022-09-26T02:36:57.870Z,3.33
2022-09-26T02:40:04.793Z,3.90
2022-09-26T02:43:27.401Z,3.83
2022-09-26T02:46:43.990Z,3.50
2022-09-26T02:50:09.546Z,3.47
2022-09-26T02:53:26.222Z,3.42
2022-09-26T02:56:43.267Z,3.63
2022-09-26T02:59:57.632Z,3.58
2022-09-26T03:03:08.041Z,3.97
2022-09-26T03:06:17.754Z,3.53
2022-09-26T03:09:24.119Z,3.80
2022-09-26T03:12:31.661Z,4.07
2022-09-26T03:15:38.387Z,3.72
2022-09-26T03:18:46.457Z,3.83
2022-09-26T03:21:50.988Z,3.60
2022-09-26T10:24:41.530Z,4.80
2022-09-26T10:27:51.585Z,5.05
2022-09-26T10:30:56.777Z,4.90
2022-09-26T10:34:05.379Z,4.72
2022-09-26T10:37:24.407Z,4.37
2022-09-26T10:40:48.180Z,5.57
2022-09-26T10:43:57.691Z,4.35
2022-09-26T10:47:24.736Z,5.05
2022-09-26T10:51:00.441Z,5.15
2022-09-26T10:54:16.424Z,4.97
2022-09-26T10:57:28.113Z,5.03
2022-09-26T11:00:41.067Z,4.72
2022-09-26T11:03:53.776Z,5.40
2022-09-26T11:06:59.942Z,5.47
2022-09-26T11:10:25.687Z,4.63
2022-09-26T11:13:48.105Z,4.87
2022-09-26T11:16:54.001Z,5.53
2022-09-26T11:20:02.621Z,5.75
2022-09-26T11:23:18.733Z,4.97
2022-09-26T11:26:27.764Z,4.67
2022-09-26T11:29:43.315Z,4.70
2022-09-26T11:32:53.983Z,5.07
2022-09-26T11:36:32.993Z,5.22
2022-09-26T11:39:50.411Z,5.45
2022-09-26T11:43:10.986Z,4.77
2022-09-26T11:46:47.524Z,5.10
2022-09-26T11:50:28.350Z,4.43
2022-09-26T11:54:03.018Z,4.38
2022-09-26T11:57:15.982Z,4.72
2022-09-26T12:00:27.277Z,4.77
2022-09-26T12:03:50.149Z,4.67
2022-09-26T12:06:58.278Z,5.15
2022-09-26T12:10:14.815Z,5.38
2022-09-26T12:13:34.296Z,5.13
2022-09-26T12:16:45.784Z,5.00
2022-09-26T12:19:58.565Z,4.57
2022-09-26T12:23:08.383Z,4.45
2022-09-26T12:26:20.617Z,4.55
2022-09-26T12:29:37.278Z,4.63
2022-09-26T12:33:29.929Z,4.27
2022-09-26T12:36:47.924Z,4.13
2022-09-26T12:40:10.283Z,5.00
2022-09-26T12:43:28.927Z,4.15
2022-09-26T12:46:57.652Z,4.60
2022-09-26T12:50:17.593Z,4.43
2022-09-26T12:53:50.355Z,3.63
2022-09-26T12:57:00.151Z,3.70
2022-09-26T13:00:18.585Z,4.20
2022-09-26T13:04:03.071Z,3.50
2022-09-26T13:07:34.017Z,3.07
2022-09-26T13:10:47.310Z,4.07
2022-09-26T13:14:14.798Z,4.00
2022-09-26T13:17:22.213Z,3.88
2022-09-26T13:20:32.454Z,4.05
2022-09-26T13:23:39.111Z,4.10
2022-09-26T13:26:47.860Z,4.30
2022-09-26T13:29:59.538Z,4.07
2022-09-26T13:33:08.680Z,4.35
2022-09-26T13:36:13.540Z,4.15
2022-09-26T13:39:24.633Z,4.10
2022-09-26T13:42:36.737Z,3.77
2022-09-26T13:45:51.606Z,4.65
2022-09-26T13:49:01.405Z,4.22
2022-09-26T13:52:20.011Z,3.97
2022-09-26T13:55:23.149Z,4.73
2022-09-26T13:58:40.476Z,4.10
2022-09-26T14:02:22.264Z,3.92
2022-09-26T14:05:46.531Z,4.20
2022-09-26T14:09:28.555Z,3.67
2022-09-26T14:12:35.241Z,3.80
2022-09-26T14:16:01.280Z,3.10
2022-09-26T14:19:07.241Z,3.28
2022-09-26T14:22:34.636Z,2.78
2022-09-26T14:25:56.562Z,3.17
2022-09-26T14:29:25.131Z,2.60
2022-09-26T14:32:36.329Z,2.08
2022-09-26T14:35:39.577Z,2.05
2022-09-26T14:38:46.420Z,1.90
2022-09-26T14:41:49.952Z,2.22
2022-09-26T14:44:58.489Z,1.83
2022-09-26T14:48:09.254Z,2.45
2022-09-26T14:51:28.319Z,2.05
2022-09-26T14:54:38.272Z,2.35
2022-09-26T14:57:41.452Z,2.08
2022-09-26T15:00:49.658Z,2.17
2022-09-26T15:03:58.578Z,2.33
2022-09-26T15:07:04.211Z,2.70
2022-09-26T15:10:21.491Z,2.75
2022-09-26T15:13:32.826Z,3.00
2022-09-26T15:16:41.819Z,2.57
2022-09-26T15:19:51.838Z,2.65
2022-09-26T15:22:57.393Z,2.85
2022-09-26T15:26:03.386Z,2.85
2022-09-26T15:29:08.866Z,2.55
2022-09-26T15:32:17.009Z,2.83
2022-09-26T15:35:21.706Z,2.70
2022-09-26T15:38:26.049Z,2.95
2022-09-26T15:41:47.055Z,2.67
2022-09-26T15:44:57.357Z,2.70
2022-09-26T15:48:03.686Z,2.43
2022-09-26T15:51:13.967Z,2.30
2022-09-26T15:54:23.807Z,2.90
2022-09-26T15:57:27.075Z,2.60
2022-09-26T16:00:33.365Z,2.40
2022-09-26T16:03:40.756Z,2.20
2022-09-26T16:06:54.414Z,2.40
2022-09-26T16:09:59.242Z,2.55
2022-09-26T16:13:02.521Z,1.88
2022-09-26T16:16:08.096Z,2.67
2022-09-26T16:19:29.758Z,1.97
2022-09-26T16:22:44.580Z,2.78
2022-09-26T16:25:56.244Z,2.65
2022-09-26T16:29:00.247Z,2.47
2022-09-26T16:32:04.583Z,2.65
2022-09-26T16:35:19.641Z,2.67
2022-09-26T16:38:27.986Z,2.70
2022-09-26T16:42:00.770Z,2.58
2022-09-26T16:45:05.900Z,2.42
2022-09-26T16:48:34.967Z,2.38
2022-09-26T16:51:39.905Z,2.20
2022-09-26T16:54:44.786Z,2.30
2022-09-26T16:57:53.605Z,2.03
2022-09-26T17:01:22.661Z,2.15
2022-09-26T17:04:30.938Z,2.20
2022-09-26T17:07:33.911Z,2.43
2022-09-26T17:10:39.116Z,3.28
2022-09-26T17:13:42.870Z,2.65
2022-09-26T17:16:48.447Z,2.75
2022-09-26T17:19:58.900Z,2.83
2022-09-26T17:23:17.119Z,2.30
2022-09-26T17:26:27.071Z,2.50
2022-09-26T17:29:33.495Z,2.28
2022-09-26T17:32:39.017Z,2.53
2022-09-26T17:35:43.015Z,3.00
2022-09-26T17:38:45.992Z,2.57
2022-09-26T17:41:50.588Z,2.77
2022-09-26T17:44:54.618Z,3.05
2022-09-26T17:48:00.258Z,4.35
2022-09-26T17:51:05.389Z,4.65
2022-09-26T17:54:15.763Z,4.43
2022-09-26T17:57:25.468Z,4.03
2022-09-26T18:00:34.196Z,4.20
2022-09-26T18:03:39.766Z,4.97
2022-09-26T18:06:43.985Z,4.63
2022-09-26T18:09:47.090Z,4.83
2022-09-26T18:12:57.611Z,4.83
2022-09-26T18:16:02.089Z,5.97
2022-09-26T18:19:10.419Z,4.88
2022-09-26T18:22:18.034Z,5.53
2022-09-26T18:25:23.487Z,5.27
2022-09-26T18:28:28.506Z,4.83
2022-09-26T18:31:34.046Z,5.50
2022-09-26T18:34:37.251Z,4.82
2022-09-26T18:37:40.475Z,4.60
2022-09-26T18:40:50.062Z,4.50
2022-09-26T18:43:56.489Z,4.43
2022-09-26T18:47:01.847Z,3.85
2022-09-26T18:50:06.027Z,4.47
2022-09-26T18:53:14.693Z,4.50
2022-09-26T18:56:35.608Z,4.00
2022-09-26T18:59:40.311Z,4.07
2022-09-26T19:02:45.182Z,3.97
2022-09-26T19:05:48.796Z,3.55
2022-09-26T19:08:57.326Z,3.72
2022-09-26T19:12:00.712Z,4.30
2022-09-26T19:15:14.499Z,3.93
2022-09-26T19:18:17.824Z,4.43
2022-09-26T19:21:29.097Z,4.35
2022-09-26T19:24:37.820Z,3.67
2022-09-26T19:27:49.615Z,3.53
2022-09-26T19:30:54.201Z,3.33
2022-09-26T19:33:58.217Z,3.30
2022-09-26T19:37:03.050Z,3.88
2022-09-26T19:40:10.465Z,3.53
2022-09-26T19:43:13.304Z,4.07
2022-09-26T19:46:28.213Z,4.10
2022-09-26T19:49:32.153Z,3.45
2022-09-26T19:52:35.666Z,4.03
2022-09-26T19:55:39.539Z,3.97
2022-09-26T19:58:46.168Z,5.20
2022-09-26T20:01:50.495Z,6.93
2022-09-26T20:04:53.649Z,6.85
2022-09-26T20:07:56.502Z,10.02
2022-09-26T20:10:59.459Z,12.05
2022-09-26T20:14:22.510Z,11.33
2022-09-26T20:17:29.175Z,11.33
2022-09-26T20:20:32.687Z,11.50
2022-09-26T20:23:36.866Z,14.00
2022-09-26T20:26:40.993Z,14.05
2022-09-26T20:30:01.969Z,12.67
2022-09-26T20:33:06.997Z,11.87
2022-09-26T20:36:13.010Z,11.18
2022-09-26T20:39:19.017Z,11.57
2022-09-26T20:42:27.937Z,11.00
2022-09-26T20:45:33.761Z,10.90
2022-09-26T20:48:41.293Z,9.43
2022-09-26T20:51:44.586Z,10.93
2022-09-26T20:54:47.627Z,10.52
2022-09-26T20:57:50.847Z,10.15
2022-09-26T21:00:54.082Z,9.27
2022-09-26T21:03:58.585Z,9.37
2022-09-26T21:07:01.772Z,10.02
2022-09-26T21:10:21.640Z,9.85
2022-09-26T21:13:24.695Z,8.63
2022-09-26T21:16:27.857Z,8.97
2022-09-26T21:19:32.630Z,9.03
2022-09-26T21:22:46.227Z,8.98
2022-09-26T21:25:50.336Z,8.30
2022-09-26T21:28:55.134Z,8.18
2022-09-26T21:32:02.866Z,7.87
2022-09-26T21:35:08.236Z,7.73
2022-09-26T21:38:11.274Z,7.38
2022-09-26T21:41:14.129Z,8.60
2022-09-26T21:44:23.538Z,8.15
2022-09-26T21:47:27.059Z,7.53
2022-09-26T21:50:31.447Z,8.00
2022-09-26T21:53:39.596Z,7.38
2022-09-26T21:56:49.953Z,7.30
2022-09-26T21:59:54.933Z,7.13
2022-09-26T22:02:59.823Z,6.60
2022-09-26T22:06:07.542Z,7.13
2022-09-26T22:09:10.909Z,6.80
2022-09-26T22:12:13.938Z,6.90
2022-09-26T22:15:17.034Z,6.50
2022-09-26T22:18:19.812Z,6.67
2022-09-26T22:21:24.194Z,6.73
2022-09-26T22:24:27.185Z,6.55
2022-09-26T22:27:30.186Z,6.25
2022-09-26T22:30:33.138Z,6.35
2022-09-26T22:33:36.216Z,5.90
2022-09-26T22:36:40.732Z,7.10
2022-09-26T22:39:43.872Z,6.05
2022-09-26T22:42:46.721Z,6.05
2022-09-26T22:45:49.760Z,5.88
2022-09-26T22:48:52.828Z,6.03
2022-09-26T22:51:57.175Z,6.13
2022-09-26T22:55:00.133Z,5.90
2022-09-26T22:58:03.232Z,5.20
2022-09-26T23:01:08.886Z,5.32
2022-09-26T23:04:12.004Z,5.97
2022-09-26T23:07:18.569Z,5.90
2022-09-26T23:10:22.187Z,5.07
2022-09-26T23:13:26.498Z,5.35
2022-09-26T23:16:29.580Z,4.80
2022-09-26T23:19:33.368Z,5.50
2022-09-26T23:22:39.641Z,5.70
2022-09-26T23:25:47.415Z,5.07
2022-09-26T23:28:51.730Z,5.03
2022-09-26T23:31:55.019Z,5.03
2022-09-26T23:34:57.938Z,5.67
2022-09-26T23:38:05.014Z,5.50
2022-09-26T23:41:10.402Z,4.93
2022-09-26T23:44:13.639Z,4.88
2022-09-26T23:47:16.782Z,4.20
2022-09-26T23:50:19.711Z,5.37
2022-09-26T23:53:24.816Z,4.77
2022-09-26T23:56:27.691Z,4.70
2022-09-26T23:59:30.628Z,4.55
